sensor_id;sensor_type;location;lat;lon;timestamp;temperature;humidity
21335;DHT22;69435;52.670;13.544;2024-03-08T00:02:04;2.40;52.70
21335;DHT22;69435;52.670;13.544;2024-03-08T00:04:50;2.40;52.60
21335;DHT22;69435;52.670;13.544;2024-03-08T00:07:39;2.40;52.60
21335;DHT22;69435;52.670;13.544;2024-03-08T00:10:26;2.40;52.70
21335;DHT22;69435;52.670;13.544;2024-03-08T00:13:14;2.40;52.60
21335;DHT22;69435;52.670;13.544;2024-03-08T00:16:00;2.30;52.60
21335;DHT22;69435;52.670;13.544;2024-03-08T00:18:47;2.40;52.60
21335;DHT22;69435;52.670;13.544;2024-03-08T00:21:35;2.30;52.60
21335;DHT22;69435;52.670;13.544;2024-03-08T00:24:21;2.30;52.70
21335;DHT22;69435;52.670;13.544;2024-03-08T00:27:11;2.20;52.60
21335;DHT22;69435;52.670;13.544;2024-03-08T00:30:00;2.20;52.70
21335;DHT22;69435;52.670;13.544;2024-03-08T00:32:46;2.20;52.70
21335;DHT22;69435;52.670;13.544;2024-03-08T00:35:32;2.20;52.80
21335;DHT22;69435;52.670;13.544;2024-03-08T00:38:18;2.20;52.90
21335;DHT22;69435;52.670;13.544;2024-03-08T00:41:04;2.10;52.90
21335;DHT22;69435;52.670;13.544;2024-03-08T00:43:50;2.20;52.90
21335;DHT22;69435;52.670;13.544;2024-03-08T00:46:36;2.10;52.90
21335;DHT22;69435;52.670;13.544;2024-03-08T00:49:22;2.10;52.90
21335;DHT22;69435;52.670;13.544;2024-03-08T00:52:08;2.00;52.80
21335;DHT22;69435;52.670;13.544;2024-03-08T00:54:54;2.00;52.80
21335;DHT22;69435;52.670;13.544;2024-03-08T00:57:41;2.00;52.80
21335;DHT22;69435;52.670;13.544;2024-03-08T01:00:26;2.00;52.90
21335;DHT22;69435;52.670;13.544;2024-03-08T01:03:13;2.00;52.90
21335;DHT22;69435;52.670;13.544;2024-03-08T01:05:59;2.00;53.00
21335;DHT22;69435;52.670;13.544;2024-03-08T01:08:47;1.90;53.20
21335;DHT22;69435;52.670;13.544;2024-03-08T01:11:33;1.90;53.30
21335;DHT22;69435;52.670;13.544;2024-03-08T01:14:20;1.90;53.30
21335;DHT22;69435;52.670;13.544;2024-03-08T01:17:11;1.90;53.40
21335;DHT22;69435;52.670;13.544;2024-03-08T01:19:58;1.80;53.30
21335;DHT22;69435;52.670;13.544;2024-03-08T01:22:44;1.80;53.40
21335;DHT22;69435;52.670;13.544;2024-03-08T01:25:30;1.80;53.40
21335;DHT22;69435;52.670;13.544;2024-03-08T01:28:17;1.80;53.40
21335;DHT22;69435;52.670;13.544;2024-03-08T01:31:03;1.80;53.50
21335;DHT22;69435;52.670;13.544;2024-03-08T01:33:50;1.80;53.50
21335;DHT22;69435;52.670;13.544;2024-03-08T01:36:36;1.80;53.50
21335;DHT22;69435;52.670;13.544;2024-03-08T01:39:23;1.80;53.50
21335;DHT22;69435;52.670;13.544;2024-03-08T01:42:09;1.70;53.50
21335;DHT22;69435;52.670;13.544;2024-03-08T01:44:57;1.70;53.50
21335;DHT22;69435;52.670;13.544;2024-03-08T01:47:43;1.70;53.50
21335;DHT22;69435;52.670;13.544;2024-03-08T01:50:29;1.70;53.60
21335;DHT22;69435;52.670;13.544;2024-03-08T01:53:17;1.70;53.90
21335;DHT22;69435;52.670;13.544;2024-03-08T01:56:06;1.70;53.80
21335;DHT22;69435;52.670;13.544;2024-03-08T01:58:52;1.70;54.50
21335;DHT22;69435;52.670;13.544;2024-03-08T02:01:39;1.70;53.90
21335;DHT22;69435;52.670;13.544;2024-03-08T02:04:26;1.70;53.90
21335;DHT22;69435;52.670;13.544;2024-03-08T02:07:12;1.70;53.90
21335;DHT22;69435;52.670;13.544;2024-03-08T02:09:58;1.70;54.70
21335;DHT22;69435;52.670;13.544;2024-03-08T02:12:46;1.70;54.00
21335;DHT22;69435;52.670;13.544;2024-03-08T02:18:38;1.70;54.00
21335;DHT22;69435;52.670;13.544;2024-03-08T02:21:25;1.70;54.80
21335;DHT22;69435;52.670;13.544;2024-03-08T02:24:12;1.70;54.10
21335;DHT22;69435;52.670;13.544;2024-03-08T02:26:58;1.70;54.20
21335;DHT22;69435;52.670;13.544;2024-03-08T02:29:44;1.70;54.20
21335;DHT22;69435;52.670;13.544;2024-03-08T02:32:31;1.70;54.20
21335;DHT22;69435;52.670;13.544;2024-03-08T02:35:18;1.70;54.90
21335;DHT22;69435;52.670;13.544;2024-03-08T02:38:04;1.70;54.20
21335;DHT22;69435;52.670;13.544;2024-03-08T02:40:51;1.60;54.20
21335;DHT22;69435;52.670;13.544;2024-03-08T02:43:39;1.70;54.20
21335;DHT22;69435;52.670;13.544;2024-03-08T02:46:25;1.60;54.10
21335;DHT22;69435;52.670;13.544;2024-03-08T02:49:11;1.60;54.30
21335;DHT22;69435;52.670;13.544;2024-03-08T02:51:57;1.60;54.30
21335;DHT22;69435;52.670;13.544;2024-03-08T02:54:44;1.60;54.30
21335;DHT22;69435;52.670;13.544;2024-03-08T02:57:32;1.60;54.40
21335;DHT22;69435;52.670;13.544;2024-03-08T03:00:18;1.60;54.40
21335;DHT22;69435;52.670;13.544;2024-03-08T03:03:05;1.60;54.40
21335;DHT22;69435;52.670;13.544;2024-03-08T03:05:52;1.50;54.50
21335;DHT22;69435;52.670;13.544;2024-03-08T03:08:41;1.50;54.40
21335;DHT22;69435;52.670;13.544;2024-03-08T03:11:29;1.60;54.40
21335;DHT22;69435;52.670;13.544;2024-03-08T03:14:15;1.50;54.50
21335;DHT22;69435;52.670;13.544;2024-03-08T03:17:01;1.50;54.50
21335;DHT22;69435;52.670;13.544;2024-03-08T03:19:48;1.50;54.70
21335;DHT22;69435;52.670;13.544;2024-03-08T03:22:34;1.50;54.80
21335;DHT22;69435;52.670;13.544;2024-03-08T03:25:21;1.50;54.90
21335;DHT22;69435;52.670;13.544;2024-03-08T03:28:19;1.50;54.80
21335;DHT22;69435;52.670;13.544;2024-03-08T03:31:07;1.50;54.90
21335;DHT22;69435;52.670;13.544;2024-03-08T03:33:55;1.40;54.80
21335;DHT22;69435;52.670;13.544;2024-03-08T03:36:46;1.40;54.80
21335;DHT22;69435;52.670;13.544;2024-03-08T03:39:32;1.40;54.80
21335;DHT22;69435;52.670;13.544;2024-03-08T03:42:19;1.40;54.80
21335;DHT22;69435;52.670;13.544;2024-03-08T03:45:06;1.40;54.80
21335;DHT22;69435;52.670;13.544;2024-03-08T03:47:52;1.40;54.90
21335;DHT22;69435;52.670;13.544;2024-03-08T03:50:39;1.40;55.00
21335;DHT22;69435;52.670;13.544;2024-03-08T03:53:25;1.40;55.00
21335;DHT22;69435;52.670;13.544;2024-03-08T03:56:11;1.30;55.10
21335;DHT22;69435;52.670;13.544;2024-03-08T03:58:57;1.40;55.00
21335;DHT22;69435;52.670;13.544;2024-03-08T04:01:43;1.30;55.00
21335;DHT22;69435;52.670;13.544;2024-03-08T04:04:29;1.30;55.10
21335;DHT22;69435;52.670;13.544;2024-03-08T04:07:15;1.30;55.10
21335;DHT22;69435;52.670;13.544;2024-03-08T04:10:03;1.30;55.10
21335;DHT22;69435;52.670;13.544;2024-03-08T04:12:51;1.30;55.10
21335;DHT22;69435;52.670;13.544;2024-03-08T04:15:38;1.30;55.00
21335;DHT22;69435;52.670;13.544;2024-03-08T04:18:24;1.30;55.00
21335;DHT22;69435;52.670;13.544;2024-03-08T04:21:10;1.30;55.10
21335;DHT22;69435;52.670;13.544;2024-03-08T04:23:56;1.30;55.20
21335;DHT22;69435;52.670;13.544;2024-03-08T04:26:42;1.30;55.20
21335;DHT22;69435;52.670;13.544;2024-03-08T04:29:29;1.30;55.30
21335;DHT22;69435;52.670;13.544;2024-03-08T04:32:15;1.30;55.30
21335;DHT22;69435;52.670;13.544;2024-03-08T04:35:01;1.30;55.30
21335;DHT22;69435;52.670;13.544;2024-03-08T04:37:47;1.20;55.40
21335;DHT22;69435;52.670;13.544;2024-03-08T04:40:33;1.30;55.30
21335;DHT22;69435;52.670;13.544;2024-03-08T04:43:20;1.30;55.40
21335;DHT22;69435;52.670;13.544;2024-03-08T04:46:06;1.30;55.40
21335;DHT22;69435;52.670;13.544;2024-03-08T04:48:52;1.20;55.30
21335;DHT22;69435;52.670;13.544;2024-03-08T04:51:38;1.20;55.40
21335;DHT22;69435;52.670;13.544;2024-03-08T04:54:24;1.20;55.40
21335;DHT22;69435;52.670;13.544;2024-03-08T04:57:10;1.20;55.40
21335;DHT22;69435;52.670;13.544;2024-03-08T04:59:56;1.20;55.50
21335;DHT22;69435;52.670;13.544;2024-03-08T05:02:44;1.20;55.50
21335;DHT22;69435;52.670;13.544;2024-03-08T05:05:30;1.20;55.40
21335;DHT22;69435;52.670;13.544;2024-03-08T05:08:16;1.20;55.40
21335;DHT22;69435;52.670;13.544;2024-03-08T05:11:04;1.10;55.40
21335;DHT22;69435;52.670;13.544;2024-03-08T05:13:52;1.10;55.40
21335;DHT22;69435;52.670;13.544;2024-03-08T05:16:39;1.10;55.30
21335;DHT22;69435;52.670;13.544;2024-03-08T05:19:26;1.10;55.30
21335;DHT22;69435;52.670;13.544;2024-03-08T05:22:12;1.10;55.40
21335;DHT22;69435;52.670;13.544;2024-03-08T05:24:59;1.10;55.40
21335;DHT22;69435;52.670;13.544;2024-03-08T05:27:45;1.10;55.40
21335;DHT22;69435;52.670;13.544;2024-03-08T05:30:33;1.10;55.30
21335;DHT22;69435;52.670;13.544;2024-03-08T05:33:19;1.10;55.40
21335;DHT22;69435;52.670;13.544;2024-03-08T05:36:05;1.00;55.30
21335;DHT22;69435;52.670;13.544;2024-03-08T05:38:51;1.00;55.30
21335;DHT22;69435;52.670;13.544;2024-03-08T05:41:38;1.00;55.20
21335;DHT22;69435;52.670;13.544;2024-03-08T05:44:27;1.00;55.10
21335;DHT22;69435;52.670;13.544;2024-03-08T05:47:14;1.10;55.20
21335;DHT22;69435;52.670;13.544;2024-03-08T05:50:01;1.10;55.20
21335;DHT22;69435;52.670;13.544;2024-03-08T05:52:48;1.10;55.30
21335;DHT22;69435;52.670;13.544;2024-03-08T05:55:34;1.10;55.20
21335;DHT22;69435;52.670;13.544;2024-03-08T05:58:22;1.10;55.20
21335;DHT22;69435;52.670;13.544;2024-03-08T06:01:08;1.10;55.40
21335;DHT22;69435;52.670;13.544;2024-03-08T06:03:58;1.10;55.40
21335;DHT22;69435;52.670;13.544;2024-03-08T06:06:44;1.10;55.50
21335;DHT22;69435;52.670;13.544;2024-03-08T06:09:30;1.10;55.50
21335;DHT22;69435;52.670;13.544;2024-03-08T06:12:16;1.10;55.50
21335;DHT22;69435;52.670;13.544;2024-03-08T06:15:04;1.20;55.60
21335;DHT22;69435;52.670;13.544;2024-03-08T06:17:51;1.20;55.60
21335;DHT22;69435;52.670;13.544;2024-03-08T06:20:40;1.20;55.60
21335;DHT22;69435;52.670;13.544;2024-03-08T06:23:29;1.30;55.70
21335;DHT22;69435;52.670;13.544;2024-03-08T06:26:15;1.30;55.80
21335;DHT22;69435;52.670;13.544;2024-03-08T06:29:01;1.40;55.80
21335;DHT22;69435;52.670;13.544;2024-03-08T06:31:47;1.50;56.00
21335;DHT22;69435;52.670;13.544;2024-03-08T06:34:33;1.50;56.00
21335;DHT22;69435;52.670;13.544;2024-03-08T06:37:20;1.60;55.90
21335;DHT22;69435;52.670;13.544;2024-03-08T06:40:07;1.70;56.10
21335;DHT22;69435;52.670;13.544;2024-03-08T06:42:55;1.80;56.10
21335;DHT22;69435;52.670;13.544;2024-03-08T06:45:42;1.90;56.40
21335;DHT22;69435;52.670;13.544;2024-03-08T06:48:33;2.00;56.40
21335;DHT22;69435;52.670;13.544;2024-03-08T06:51:20;2.00;56.30
21335;DHT22;69435;52.670;13.544;2024-03-08T06:54:07;2.10;56.40
21335;DHT22;69435;52.670;13.544;2024-03-08T06:56:54;2.20;56.40
21335;DHT22;69435;52.670;13.544;2024-03-08T06:59:40;2.30;56.70
21335;DHT22;69435;52.670;13.544;2024-03-08T07:02:26;2.40;56.60
21335;DHT22;69435;52.670;13.544;2024-03-08T07:05:13;2.50;57.00
21335;DHT22;69435;52.670;13.544;2024-03-08T07:07:59;2.70;57.90
21335;DHT22;69435;52.670;13.544;2024-03-08T07:10:45;3.10;59.50
21335;DHT22;69435;52.670;13.544;2024-03-08T07:13:31;3.70;61.60
21335;DHT22;69435;52.670;13.544;2024-03-08T07:16:18;4.60;62.30
21335;DHT22;69435;52.670;13.544;2024-03-08T07:19:04;5.50;61.40
21335;DHT22;69435;52.670;13.544;2024-03-08T07:21:50;6.40;60.70
21335;DHT22;69435;52.670;13.544;2024-03-08T07:24:37;7.40;59.10
21335;DHT22;69435;52.670;13.544;2024-03-08T07:27:23;8.40;56.00
21335;DHT22;69435;52.670;13.544;2024-03-08T07:30:09;9.50;53.40
21335;DHT22;69435;52.670;13.544;2024-03-08T07:32:55;10.40;49.50
21335;DHT22;69435;52.670;13.544;2024-03-08T07:35:41;11.30;47.20
21335;DHT22;69435;52.670;13.544;2024-03-08T07:38:28;12.10;43.30
21335;DHT22;69435;52.670;13.544;2024-03-08T07:41:15;12.50;42.60
21335;DHT22;69435;52.670;13.544;2024-03-08T07:44:02;13.10;41.30
21335;DHT22;69435;52.670;13.544;2024-03-08T07:46:49;13.80;39.10
21335;DHT22;69435;52.670;13.544;2024-03-08T07:49:36;14.30;37.20
21335;DHT22;69435;52.670;13.544;2024-03-08T07:52:24;14.60;35.50
21335;DHT22;69435;52.670;13.544;2024-03-08T07:55:10;14.70;34.40
21335;DHT22;69435;52.670;13.544;2024-03-08T07:57:56;14.90;34.00
21335;DHT22;69435;52.670;13.544;2024-03-08T08:00:42;14.90;34.20
21335;DHT22;69435;52.670;13.544;2024-03-08T08:03:28;15.00;34.50
21335;DHT22;69435;52.670;13.544;2024-03-08T08:06:18;15.20;34.30
21335;DHT22;69435;52.670;13.544;2024-03-08T08:09:04;15.40;32.20
21335;DHT22;69435;52.670;13.544;2024-03-08T08:11:50;15.40;31.00
21335;DHT22;69435;52.670;13.544;2024-03-08T08:14:36;15.10;31.20
21335;DHT22;69435;52.670;13.544;2024-03-08T08:17:22;15.00;31.30
21335;DHT22;69435;52.670;13.544;2024-03-08T08:20:09;14.90;31.20
21335;DHT22;69435;52.670;13.544;2024-03-08T08:22:57;15.00;30.30
21335;DHT22;69435;52.670;13.544;2024-03-08T08:25:45;14.90;30.90
21335;DHT22;69435;52.670;13.544;2024-03-08T08:28:31;14.80;30.40
21335;DHT22;69435;52.670;13.544;2024-03-08T08:31:17;14.70;30.80
21335;DHT22;69435;52.670;13.544;2024-03-08T08:34:03;14.60;30.50
21335;DHT22;69435;52.670;13.544;2024-03-08T08:36:49;14.60;31.30
21335;DHT22;69435;52.670;13.544;2024-03-08T08:39:35;14.50;30.50
21335;DHT22;69435;52.670;13.544;2024-03-08T08:42:21;14.30;30.50
21335;DHT22;69435;52.670;13.544;2024-03-08T08:45:07;14.10;31.20
21335;DHT22;69435;52.670;13.544;2024-03-08T08:47:54;13.90;31.20
21335;DHT22;69435;52.670;13.544;2024-03-08T08:50:40;14.00;30.60
21335;DHT22;69435;52.670;13.544;2024-03-08T08:53:27;13.80;31.30
21335;DHT22;69435;52.670;13.544;2024-03-08T08:56:14;13.80;31.30
21335;DHT22;69435;52.670;13.544;2024-03-08T08:59:01;13.80;31.50
21335;DHT22;69435;52.670;13.544;2024-03-08T09:01:49;14.00;31.00
21335;DHT22;69435;52.670;13.544;2024-03-08T09:04:37;14.10;31.70
21335;DHT22;69435;52.670;13.544;2024-03-08T09:07:23;14.30;30.70
21335;DHT22;69435;52.670;13.544;2024-03-08T09:10:10;14.50;29.20
21335;DHT22;69435;52.670;13.544;2024-03-08T09:12:57;14.70;30.00
21335;DHT22;69435;52.670;13.544;2024-03-08T09:15:45;14.80;29.40
21335;DHT22;69435;52.670;13.544;2024-03-08T09:18:31;14.90;28.60
21335;DHT22;69435;52.670;13.544;2024-03-08T09:21:17;14.80;28.00
21335;DHT22;69435;52.670;13.544;2024-03-08T09:24:03;14.80;29.70
21335;DHT22;69435;52.670;13.544;2024-03-08T09:26:50;14.80;28.70
21335;DHT22;69435;52.670;13.544;2024-03-08T09:29:37;14.80;28.00
21335;DHT22;69435;52.670;13.544;2024-03-08T09:32:23;14.70;28.00
21335;DHT22;69435;52.670;13.544;2024-03-08T09:35:09;14.50;28.40
21335;DHT22;69435;52.670;13.544;2024-03-08T09:37:56;14.20;29.50
21335;DHT22;69435;52.670;13.544;2024-03-08T09:40:42;14.10;29.50
21335;DHT22;69435;52.670;13.544;2024-03-08T09:43:29;14.10;28.80
21335;DHT22;69435;52.670;13.544;2024-03-08T09:46:16;14.10;28.90
21335;DHT22;69435;52.670;13.544;2024-03-08T09:49:04;14.10;29.10
21335;DHT22;69435;52.670;13.544;2024-03-08T09:51:51;14.00;28.70
21335;DHT22;69435;52.670;13.544;2024-03-08T09:54:37;14.00;29.10
21335;DHT22;69435;52.670;13.544;2024-03-08T09:57:25;13.80;29.90
21335;DHT22;69435;52.670;13.544;2024-03-08T10:00:12;13.80;30.10
21335;DHT22;69435;52.670;13.544;2024-03-08T10:03:09;13.90;30.80
21335;DHT22;69435;52.670;13.544;2024-03-08T10:05:57;14.10;30.60
21335;DHT22;69435;52.670;13.544;2024-03-08T10:08:48;14.10;29.20
21335;DHT22;69435;52.670;13.544;2024-03-08T10:11:37;14.10;28.70
21335;DHT22;69435;52.670;13.544;2024-03-08T10:14:25;14.10;28.40
21335;DHT22;69435;52.670;13.544;2024-03-08T10:17:14;14.00;27.90
21335;DHT22;69435;52.670;13.544;2024-03-08T10:20:01;13.80;28.50
21335;DHT22;69435;52.670;13.544;2024-03-08T10:22:48;13.80;29.30
21335;DHT22;69435;52.670;13.544;2024-03-08T10:25:35;13.80;29.70
21335;DHT22;69435;52.670;13.544;2024-03-08T10:28:22;14.00;29.40
21335;DHT22;69435;52.670;13.544;2024-03-08T10:31:10;14.10;28.30
21335;DHT22;69435;52.670;13.544;2024-03-08T10:33:56;13.90;27.70
21335;DHT22;69435;52.670;13.544;2024-03-08T10:36:42;13.80;28.00
21335;DHT22;69435;52.670;13.544;2024-03-08T10:39:35;13.70;28.10
21335;DHT22;69435;52.670;13.544;2024-03-08T10:42:27;13.60;28.80
21335;DHT22;69435;52.670;13.544;2024-03-08T10:45:18;13.50;29.20
21335;DHT22;69435;52.670;13.544;2024-03-08T10:48:33;13.40;28.30
21335;DHT22;69435;52.670;13.544;2024-03-08T10:51:35;13.40;28.70
21335;DHT22;69435;52.670;13.544;2024-03-08T10:54:25;13.30;28.60
21335;DHT22;69435;52.670;13.544;2024-03-08T10:57:13;13.40;28.50
21335;DHT22;69435;52.670;13.544;2024-03-08T11:00:01;13.30;28.20
21335;DHT22;69435;52.670;13.544;2024-03-08T11:02:49;13.30;28.00
21335;DHT22;69435;52.670;13.544;2024-03-08T11:05:37;13.30;28.40
21335;DHT22;69435;52.670;13.544;2024-03-08T11:08:25;13.20;28.90
21335;DHT22;69435;52.670;13.544;2024-03-08T11:11:31;13.20;29.00
21335;DHT22;69435;52.670;13.544;2024-03-08T11:14:44;13.30;28.00
21335;DHT22;69435;52.670;13.544;2024-03-08T11:20:19;13.00;28.30
21335;DHT22;69435;52.670;13.544;2024-03-08T11:23:08;13.00;28.80
21335;DHT22;69435;52.670;13.544;2024-03-08T11:25:54;13.00;29.60
21335;DHT22;69435;52.670;13.544;2024-03-08T11:28:41;12.90;29.40
21335;DHT22;69435;52.670;13.544;2024-03-08T11:31:27;12.90;28.80
21335;DHT22;69435;52.670;13.544;2024-03-08T11:34:16;13.00;28.80
21335;DHT22;69435;52.670;13.544;2024-03-08T11:37:05;13.00;28.60
21335;DHT22;69435;52.670;13.544;2024-03-08T11:39:55;13.00;28.60
21335;DHT22;69435;52.670;13.544;2024-03-08T11:42:50;13.00;27.90
21335;DHT22;69435;52.670;13.544;2024-03-08T11:45:37;13.00;28.00
21335;DHT22;69435;52.670;13.544;2024-03-08T11:48:23;12.90;29.00
21335;DHT22;69435;52.670;13.544;2024-03-08T11:51:14;12.80;28.80
21335;DHT22;69435;52.670;13.544;2024-03-08T11:54:01;12.70;29.00
21335;DHT22;69435;52.670;13.544;2024-03-08T11:56:47;12.70;29.50
21335;DHT22;69435;52.670;13.544;2024-03-08T11:59:33;12.80;29.40
21335;DHT22;69435;52.670;13.544;2024-03-08T12:02:19;12.80;29.80
21335;DHT22;69435;52.670;13.544;2024-03-08T12:05:05;12.80;29.40
21335;DHT22;69435;52.670;13.544;2024-03-08T12:07:58;12.80;28.90
21335;DHT22;69435;52.670;13.544;2024-03-08T12:10:44;12.80;29.60
21335;DHT22;69435;52.670;13.544;2024-03-08T12:13:32;12.80;29.60
21335;DHT22;69435;52.670;13.544;2024-03-08T12:16:19;12.80;28.40
21335;DHT22;69435;52.670;13.544;2024-03-08T12:19:09;12.80;29.90
21335;DHT22;69435;52.670;13.544;2024-03-08T12:21:56;12.70;29.50
21335;DHT22;69435;52.670;13.544;2024-03-08T12:24:42;12.70;29.40
21335;DHT22;69435;52.670;13.544;2024-03-08T12:27:29;12.80;30.30
21335;DHT22;69435;52.670;13.544;2024-03-08T12:30:26;12.90;28.80
21335;DHT22;69435;52.670;13.544;2024-03-08T12:33:12;12.90;28.90
21335;DHT22;69435;52.670;13.544;2024-03-08T12:35:58;13.00;28.60
21335;DHT22;69435;52.670;13.544;2024-03-08T12:38:48;13.00;28.40
21335;DHT22;69435;52.670;13.544;2024-03-08T12:41:39;12.90;28.00
21335;DHT22;69435;52.670;13.544;2024-03-08T12:44:26;12.70;28.00
21335;DHT22;69435;52.670;13.544;2024-03-08T12:47:13;12.60;28.10
21335;DHT22;69435;52.670;13.544;2024-03-08T12:49:59;12.50;28.40
21335;DHT22;69435;52.670;13.544;2024-03-08T12:52:46;12.40;29.20
21335;DHT22;69435;52.670;13.544;2024-03-08T12:55:32;12.40;27.80
21335;DHT22;69435;52.670;13.544;2024-03-08T12:58:19;12.30;28.50
21335;DHT22;69435;52.670;13.544;2024-03-08T13:01:05;12.10;28.80
21335;DHT22;69435;52.670;13.544;2024-03-08T13:03:55;12.00;30.70
21335;DHT22;69435;52.670;13.544;2024-03-08T13:06:44;12.00;30.40
21335;DHT22;69435;52.670;13.544;2024-03-08T13:09:32;12.00;29.70
21335;DHT22;69435;52.670;13.544;2024-03-08T13:12:23;11.90;29.80
21335;DHT22;69435;52.670;13.544;2024-03-08T13:15:10;11.80;30.00
21335;DHT22;69435;52.670;13.544;2024-03-08T13:18:06;11.60;30.20
21335;DHT22;69435;52.670;13.544;2024-03-08T13:20:55;11.50;30.40
21335;DHT22;69435;52.670;13.544;2024-03-08T13:23:43;11.40;30.50
21335;DHT22;69435;52.670;13.544;2024-03-08T13:26:32;11.30;31.10
21335;DHT22;69435;52.670;13.544;2024-03-08T13:29:20;11.20;31.40
21335;DHT22;69435;52.670;13.544;2024-03-08T13:32:07;11.10;31.40
21335;DHT22;69435;52.670;13.544;2024-03-08T13:34:53;11.00;32.10
21335;DHT22;69435;52.670;13.544;2024-03-08T13:37:43;11.00;31.90
21335;DHT22;69435;52.670;13.544;2024-03-08T13:40:29;10.90;32.10
21335;DHT22;69435;52.670;13.544;2024-03-08T13:43:15;11.00;32.40
21335;DHT22;69435;52.670;13.544;2024-03-08T13:46:00;11.00;31.80
21335;DHT22;69435;52.670;13.544;2024-03-08T13:48:47;11.00;31.70
21335;DHT22;69435;52.670;13.544;2024-03-08T13:51:34;10.90;32.30
21335;DHT22;69435;52.670;13.544;2024-03-08T13:54:20;10.80;32.50
21335;DHT22;69435;52.670;13.544;2024-03-08T13:57:07;10.80;32.60
21335;DHT22;69435;52.670;13.544;2024-03-08T13:59:53;10.80;32.20
21335;DHT22;69435;52.670;13.544;2024-03-08T14:02:39;10.80;32.30
21335;DHT22;69435;52.670;13.544;2024-03-08T14:05:26;10.80;32.40
21335;DHT22;69435;52.670;13.544;2024-03-08T14:08:12;10.70;32.70
21335;DHT22;69435;52.670;13.544;2024-03-08T14:10:58;10.70;32.40
21335;DHT22;69435;52.670;13.544;2024-03-08T14:13:44;10.70;32.70
21335;DHT22;69435;52.670;13.544;2024-03-08T14:16:32;10.60;32.50
21335;DHT22;69435;52.670;13.544;2024-03-08T14:19:19;10.60;33.90
21335;DHT22;69435;52.670;13.544;2024-03-08T14:22:05;10.60;32.90
21335;DHT22;69435;52.670;13.544;2024-03-08T14:24:52;10.60;33.90
21335;DHT22;69435;52.670;13.544;2024-03-08T14:27:41;10.60;32.90
21335;DHT22;69435;52.670;13.544;2024-03-08T14:30:29;10.50;33.30
21335;DHT22;69435;52.670;13.544;2024-03-08T14:33:18;10.50;33.40
21335;DHT22;69435;52.670;13.544;2024-03-08T14:36:04;10.50;34.00
21335;DHT22;69435;52.670;13.544;2024-03-08T14:38:52;10.40;33.80
21335;DHT22;69435;52.670;13.544;2024-03-08T14:41:40;10.40;33.80
21335;DHT22;69435;52.670;13.544;2024-03-08T14:44:26;10.40;34.20
21335;DHT22;69435;52.670;13.544;2024-03-08T14:47:12;10.30;33.90
21335;DHT22;69435;52.670;13.544;2024-03-08T14:49:59;10.30;33.80
21335;DHT22;69435;52.670;13.544;2024-03-08T14:52:45;10.20;34.00
21335;DHT22;69435;52.670;13.544;2024-03-08T14:55:33;10.20;34.20
21335;DHT22;69435;52.670;13.544;2024-03-08T14:58:20;10.20;34.00
21335;DHT22;69435;52.670;13.544;2024-03-08T15:01:07;10.30;34.10
21335;DHT22;69435;52.670;13.544;2024-03-08T15:03:53;10.20;34.30
21335;DHT22;69435;52.670;13.544;2024-03-08T15:06:40;10.20;34.10
21335;DHT22;69435;52.670;13.544;2024-03-08T15:09:28;10.20;33.80
21335;DHT22;69435;52.670;13.544;2024-03-08T15:12:14;10.30;33.50
21335;DHT22;69435;52.670;13.544;2024-03-08T15:15:01;10.20;33.10
21335;DHT22;69435;52.670;13.544;2024-03-08T15:17:47;10.20;32.80
21335;DHT22;69435;52.670;13.544;2024-03-08T15:20:33;10.20;33.10
21335;DHT22;69435;52.670;13.544;2024-03-08T15:23:20;10.20;33.30
21335;DHT22;69435;52.670;13.544;2024-03-08T15:26:06;10.10;33.70
21335;DHT22;69435;52.670;13.544;2024-03-08T15:28:55;10.10;33.50
21335;DHT22;69435;52.670;13.544;2024-03-08T15:31:42;10.20;32.80
21335;DHT22;69435;52.670;13.544;2024-03-08T15:34:29;10.10;33.10
21335;DHT22;69435;52.670;13.544;2024-03-08T15:37:15;10.00;32.70
21335;DHT22;69435;52.670;13.544;2024-03-08T15:40:03;10.00;33.00
21335;DHT22;69435;52.670;13.544;2024-03-08T15:45:40;10.00;32.80
21335;DHT22;69435;52.670;13.544;2024-03-08T15:48:26;10.00;32.90
21335;DHT22;69435;52.670;13.544;2024-03-08T15:51:12;10.00;32.70
21335;DHT22;69435;52.670;13.544;2024-03-08T15:53:59;9.90;32.40
21335;DHT22;69435;52.670;13.544;2024-03-08T15:56:45;9.90;32.60
21335;DHT22;69435;52.670;13.544;2024-03-08T15:59:31;9.80;32.80
21335;DHT22;69435;52.670;13.544;2024-03-08T16:02:22;9.80;32.80
21335;DHT22;69435;52.670;13.544;2024-03-08T16:05:10;9.80;32.80
21335;DHT22;69435;52.670;13.544;2024-03-08T16:07:57;9.80;32.80
21335;DHT22;69435;52.670;13.544;2024-03-08T16:10:46;9.70;32.70
21335;DHT22;69435;52.670;13.544;2024-03-08T16:13:42;9.70;33.00
21335;DHT22;69435;52.670;13.544;2024-03-08T16:16:28;9.70;33.20
21335;DHT22;69435;52.670;13.544;2024-03-08T16:19:16;9.60;32.90
21335;DHT22;69435;52.670;13.544;2024-03-08T16:22:02;9.60;32.10
21335;DHT22;69435;52.670;13.544;2024-03-08T16:24:50;9.50;31.80
21335;DHT22;69435;52.670;13.544;2024-03-08T16:27:36;9.50;32.20
21335;DHT22;69435;52.670;13.544;2024-03-08T16:30:23;9.40;31.70
21335;DHT22;69435;52.670;13.544;2024-03-08T16:33:09;9.40;31.80
21335;DHT22;69435;52.670;13.544;2024-03-08T16:35:56;9.40;31.70
21335;DHT22;69435;52.670;13.544;2024-03-08T16:38:42;9.40;32.40
21335;DHT22;69435;52.670;13.544;2024-03-08T16:41:30;9.40;32.20
21335;DHT22;69435;52.670;13.544;2024-03-08T16:44:17;9.30;32.10
21335;DHT22;69435;52.670;13.544;2024-03-08T16:47:05;9.30;32.50
21335;DHT22;69435;52.670;13.544;2024-03-08T16:49:52;9.20;32.30
21335;DHT22;69435;52.670;13.544;2024-03-08T16:52:38;9.20;32.80
21335;DHT22;69435;52.670;13.544;2024-03-08T16:55:25;9.10;32.90
21335;DHT22;69435;52.670;13.544;2024-03-08T16:58:11;9.10;32.70
21335;DHT22;69435;52.670;13.544;2024-03-08T17:01:00;9.10;33.20
21335;DHT22;69435;52.670;13.544;2024-03-08T17:03:47;9.00;33.10
21335;DHT22;69435;52.670;13.544;2024-03-08T17:06:34;8.90;33.30
21335;DHT22;69435;52.670;13.544;2024-03-08T17:09:20;8.90;33.70
21335;DHT22;69435;52.670;13.544;2024-03-08T17:12:07;8.80;34.00
21335;DHT22;69435;52.670;13.544;2024-03-08T17:14:56;8.70;34.40
21335;DHT22;69435;52.670;13.544;2024-03-08T17:17:42;8.70;35.10
21335;DHT22;69435;52.670;13.544;2024-03-08T17:20:28;8.60;35.00
21335;DHT22;69435;52.670;13.544;2024-03-08T17:23:14;8.60;35.20
21335;DHT22;69435;52.670;13.544;2024-03-08T17:26:01;8.50;35.50
21335;DHT22;69435;52.670;13.544;2024-03-08T17:28:48;8.50;36.00
21335;DHT22;69435;52.670;13.544;2024-03-08T17:31:35;8.50;36.00
21335;DHT22;69435;52.670;13.544;2024-03-08T17:34:21;8.40;35.70
21335;DHT22;69435;52.670;13.544;2024-03-08T17:37:07;8.30;36.00
21335;DHT22;69435;52.670;13.544;2024-03-08T17:39:53;8.30;36.30